createdAt,value
2023-05-20T00:01:25.742Z,13.30
2023-05-20T00:03:53.622Z,13.31
2023-05-20T00:06:21.588Z,13.31
2023-05-20T00:08:49.325Z,13.32
2023-05-20T00:11:16.993Z,13.32
2023-05-20T00:13:45.439Z,13.32
2023-05-20T00:16:13.263Z,13.32
2023-05-20T00:18:41.105Z,13.33
2023-05-20T00:21:09.213Z,13.33
2023-05-20T00:23:36.905Z,13.33
2023-05-20T00:26:04.803Z,13.34
2023-05-20T00:28:32.503Z,13.33
2023-05-20T00:31:00.191Z,13.33
2023-05-20T00:33:28.605Z,13.33
2023-05-20T00:35:56.416Z,13.32
2023-05-20T00:38:24.146Z,13.32
2023-05-20T00:40:51.858Z,13.31
2023-05-20T00:43:20.728Z,13.31
2023-05-20T00:45:48.745Z,13.31
2023-05-20T00:48:16.677Z,13.31
2023-05-20T00:50:44.703Z,13.32
2023-05-20T00:53:12.942Z,13.32
2023-05-20T00:55:41.128Z,13.32
2023-05-20T00:58:08.866Z,13.31
2023-05-20T01:00:36.594Z,13.30
2023-05-20T01:03:04.689Z,13.29
2023-05-20T01:05:32.851Z,13.28
2023-05-20T01:08:01.530Z,13.28
2023-05-20T01:10:30.818Z,13.29
2023-05-20T01:13:01.809Z,13.28
2023-05-20T01:15:29.712Z,13.28
2023-05-20T01:18:06.258Z,13.28
2023-05-20T01:20:36.011Z,13.27
2023-05-20T01:23:04.425Z,13.27
2023-05-20T01:25:32.324Z,13.27
2023-05-20T01:28:00.346Z,13.27
2023-05-20T01:30:33.911Z,13.27
2023-05-20T01:33:08.437Z,13.27
2023-05-20T01:35:37.602Z,13.26
2023-05-20T01:38:06.705Z,13.25
2023-05-20T01:40:34.846Z,13.24
2023-05-20T01:43:03.558Z,13.24
2023-05-20T01:45:31.692Z,13.23
2023-05-20T01:47:59.730Z,13.23
2023-05-20T01:50:27.675Z,13.22
2023-05-20T01:52:55.416Z,13.22
2023-05-20T01:55:23.407Z,13.22
2023-05-20T01:57:51.359Z,13.21
2023-05-20T02:00:19.069Z,13.21
2023-05-20T02:02:46.943Z,13.20
2023-05-20T02:05:14.962Z,13.19
2023-05-20T02:07:42.689Z,13.18
2023-05-20T02:10:11.304Z,13.18
2023-05-20T02:12:39.091Z,13.18
2023-05-20T02:15:07.835Z,13.17
2023-05-20T02:17:36.074Z,13.17
2023-05-20T02:20:06.654Z,13.17
2023-05-20T02:22:34.328Z,13.16
2023-05-20T02:25:02.690Z,13.16
2023-05-20T02:27:30.426Z,13.16
2023-05-20T02:29:58.109Z,13.15
2023-05-20T02:32:28.244Z,13.15
2023-05-20T02:34:56.040Z,13.14
2023-05-20T02:37:24.564Z,13.14
2023-05-20T02:39:52.310Z,13.13
2023-05-20T02:42:20.097Z,13.14
2023-05-20T02:44:47.805Z,13.13
2023-05-20T02:47:15.550Z,13.12
2023-05-20T02:49:43.387Z,13.12
2023-05-20T02:52:11.050Z,13.11
2023-05-20T02:54:38.743Z,13.11
2023-05-20T02:57:06.473Z,13.11
2023-05-20T02:59:34.987Z,13.10
2023-05-20T03:02:03.352Z,13.09
2023-05-20T03:04:31.887Z,13.09
2023-05-20T03:06:59.767Z,13.09
2023-05-20T03:09:27.460Z,13.09
2023-05-20T03:11:55.407Z,13.08
2023-05-20T03:14:23.058Z,13.08
2023-05-20T03:16:50.751Z,13.08
2023-05-20T03:19:18.467Z,13.08
2023-05-20T03:21:46.983Z,13.08
2023-05-20T03:24:14.934Z,13.09
2023-05-20T03:26:43.189Z,13.10
2023-05-20T03:29:11.103Z,13.10
2023-05-20T03:31:38.985Z,13.11
2023-05-20T03:34:08.395Z,13.12
2023-05-20T03:36:36.377Z,13.12
2023-05-20T03:39:04.664Z,13.13
2023-05-20T03:41:33.011Z,13.14
2023-05-20T03:44:00.934Z,13.15
2023-05-20T03:46:28.879Z,13.16
2023-05-20T03:48:56.736Z,13.17
2023-05-20T03:51:24.400Z,13.18
2023-05-20T03:53:52.082Z,13.20
2023-05-20T03:56:19.777Z,13.21
2023-05-20T03:58:47.840Z,13.23
2023-05-20T04:01:15.590Z,13.25
2023-05-20T04:03:43.918Z,13.26
2023-05-20T04:06:11.761Z,13.28
2023-05-20T04:08:39.502Z,13.29
2023-05-20T04:11:07.214Z,13.31
2023-05-20T04:13:35.159Z,13.31
2023-05-20T04:16:05.399Z,13.31
2023-05-20T04:18:33.192Z,13.31
2023-05-20T04:21:02.909Z,13.33
2023-05-20T04:23:30.732Z,13.35
2023-05-20T04:26:02.743Z,13.39
2023-05-20T04:28:31.868Z,13.42
2023-05-20T04:31:04.614Z,13.46
2023-05-20T04:33:33.128Z,13.48
2023-05-20T04:36:01.489Z,13.50
2023-05-20T04:38:30.045Z,13.52
2023-05-20T04:41:01.866Z,13.55
2023-05-20T04:43:30.401Z,13.58
2023-05-20T04:45:58.575Z,13.62
2023-05-20T04:48:26.434Z,13.65
2023-05-20T04:50:54.541Z,13.67
2023-05-20T04:53:23.504Z,13.72
2023-05-20T04:55:57.028Z,13.76
2023-05-20T04:58:25.316Z,13.79
2023-05-20T05:00:53.175Z,13.81
2023-05-20T05:03:21.144Z,13.84
2023-05-20T05:05:48.878Z,13.86
2023-05-20T05:08:17.532Z,13.87
2023-05-20T05:10:47.112Z,13.87
2023-05-20T05:13:15.968Z,13.91
2023-05-20T05:15:43.977Z,13.94
2023-05-20T05:18:11.976Z,13.97
2023-05-20T05:20:42.519Z,14.00
2023-05-20T05:23:10.200Z,14.03
2023-05-20T05:25:37.920Z,14.08
2023-05-20T05:28:05.680Z,14.13
2023-05-20T05:30:33.587Z,14.19
2023-05-20T05:33:01.528Z,14.24
2023-05-20T05:35:29.614Z,14.30
2023-05-20T05:37:57.500Z,14.36
2023-05-20T05:40:25.457Z,14.42
2023-05-20T05:42:53.328Z,14.45
2023-05-20T05:45:21.027Z,14.46
2023-05-20T05:47:48.782Z,14.48
2023-05-20T05:50:16.811Z,14.50
2023-05-20T05:52:44.514Z,14.52
2023-05-20T05:55:12.788Z,14.55
2023-05-20T05:57:40.623Z,14.57
2023-05-20T06:00:09.513Z,14.58
2023-05-20T06:02:37.412Z,14.60
2023-05-20T06:05:06.144Z,14.64
2023-05-20T06:07:33.829Z,14.69
2023-05-20T06:10:02.065Z,14.72
2023-05-20T06:12:29.852Z,14.76
2023-05-20T06:14:57.557Z,14.81
2023-05-20T06:17:25.666Z,14.85
2023-05-20T06:19:53.843Z,14.91
2023-05-20T06:22:21.617Z,14.98
2023-05-20T06:24:49.356Z,15.07
2023-05-20T06:27:17.352Z,15.14
2023-05-20T06:29:45.022Z,15.20
2023-05-20T06:32:12.877Z,15.22
2023-05-20T06:34:40.913Z,15.24
2023-05-20T06:37:08.659Z,15.29
2023-05-20T06:39:36.368Z,15.35
2023-05-20T06:42:04.221Z,15.41
2023-05-20T06:44:32.101Z,15.46
2023-05-20T06:46:59.984Z,15.52
2023-05-20T06:49:28.522Z,15.59
2023-05-20T06:51:56.307Z,15.71
2023-05-20T06:54:24.105Z,15.82
2023-05-20T06:56:51.832Z,15.91
2023-05-20T06:59:19.530Z,15.97
2023-05-20T07:01:47.304Z,16.03
2023-05-20T07:04:15.147Z,16.12
2023-05-20T07:06:43.126Z,16.24
2023-05-20T07:09:11.126Z,16.38
2023-05-20T07:11:38.851Z,16.52
2023-05-20T07:14:06.794Z,16.64
2023-05-20T07:16:35.361Z,16.77
2023-05-20T07:19:04.190Z,16.89
2023-05-20T07:21:31.984Z,17.02
2023-05-20T07:23:59.742Z,17.16
2023-05-20T07:26:27.633Z,17.28
2023-05-20T07:28:55.354Z,17.37
2023-05-20T07:31:24.350Z,17.45
2023-05-20T07:33:52.226Z,17.57
2023-05-20T07:36:19.998Z,17.68
2023-05-20T07:38:56.835Z,17.75
2023-05-20T07:41:30.177Z,17.82
2023-05-20T07:43:58.024Z,17.89
2023-05-20T07:46:26.003Z,17.99
2023-05-20T07:48:54.419Z,18.05
2023-05-20T07:51:22.279Z,18.13
2023-05-20T07:53:50.140Z,18.20
2023-05-20T07:56:18.134Z,18.27
2023-05-20T07:58:53.441Z,18.33
2023-05-20T08:01:22.206Z,18.43
2023-05-20T08:03:50.205Z,18.50
2023-05-20T08:06:18.313Z,18.58
2023-05-20T08:08:46.867Z,18.70
2023-05-20T08:11:14.710Z,18.86
2023-05-20T08:13:42.531Z,18.99
2023-05-20T08:16:10.551Z,19.11
2023-05-20T08:18:38.590Z,19.18
2023-05-20T08:21:10.074Z,19.23
2023-05-20T08:23:40.414Z,19.30
2023-05-20T08:26:08.532Z,19.34
2023-05-20T08:28:38.129Z,19.39
2023-05-20T08:31:06.119Z,19.48
2023-05-20T08:33:33.968Z,19.54
2023-05-20T08:36:01.943Z,19.58
2023-05-20T08:38:29.774Z,19.58
2023-05-20T08:40:58.112Z,19.61
2023-05-20T08:43:26.874Z,19.62
2023-05-20T08:45:55.030Z,19.63
2023-05-20T08:48:26.066Z,19.70
2023-05-20T08:50:57.839Z,19.75
2023-05-20T08:53:26.824Z,19.79
2023-05-20T08:56:01.455Z,19.86
2023-05-20T08:58:30.644Z,19.95
2023-05-20T09:00:59.208Z,20.03
2023-05-20T09:03:27.359Z,20.09
2023-05-20T09:06:06.915Z,20.15
2023-05-20T09:08:34.896Z,20.17
2023-05-20T09:11:03.285Z,20.21
2023-05-20T09:13:34.722Z,20.28
2023-05-20T09:16:03.169Z,20.37
2023-05-20T09:18:31.516Z,20.50
2023-05-20T09:21:06.392Z,20.62
2023-05-20T09:23:37.215Z,20.72
2023-05-20T09:26:04.983Z,20.79
2023-05-20T09:28:33.972Z,20.84
2023-05-20T09:31:02.302Z,20.91
2023-05-20T09:33:32.349Z,21.01
2023-05-20T09:36:05.262Z,21.06
2023-05-20T09:38:39.510Z,21.08
2023-05-20T09:41:13.831Z,21.12
2023-05-20T09:43:42.093Z,21.18
2023-05-20T09:46:10.913Z,21.26
2023-05-20T09:48:39.986Z,21.33
2023-05-20T09:51:08.393Z,21.39
2023-05-20T09:53:36.725Z,21.50
2023-05-20T09:56:04.876Z,21.63
2023-05-20T09:58:35.853Z,21.80
2023-05-20T10:01:03.874Z,21.97
2023-05-20T10:03:33.429Z,22.09
2023-05-20T10:06:27.721Z,22.18
2023-05-20T10:09:27.868Z,22.33
2023-05-20T10:12:24.694Z,22.49
2023-05-20T10:15:18.352Z,22.59
2023-05-20T10:17:52.229Z,22.66
2023-05-20T10:20:20.718Z,22.69
2023-05-20T10:22:57.487Z,22.77
2023-05-20T10:25:28.089Z,22.87
2023-05-20T10:28:08.553Z,22.99
2023-05-20T10:30:37.474Z,23.11
2023-05-20T10:33:07.232Z,23.27
2023-05-20T10:35:35.655Z,23.43
2023-05-20T10:38:12.027Z,23.56
2023-05-20T10:40:40.864Z,23.67
2023-05-20T10:43:17.792Z,23.80
2023-05-20T10:45:50.674Z,23.86
2023-05-20T10:48:25.716Z,23.84
2023-05-20T10:50:58.213Z,23.85
2023-05-20T10:53:34.075Z,23.91
2023-05-20T10:56:03.060Z,23.99
2023-05-20T10:58:38.770Z,23.95
2023-05-20T11:01:06.654Z,23.85
2023-05-20T11:03:36.348Z,23.75
2023-05-20T11:06:16.066Z,23.70
2023-05-20T11:08:46.351Z,23.68
2023-05-20T11:11:15.323Z,23.61
2023-05-20T11:13:43.357Z,23.56
2023-05-20T11:16:11.725Z,23.52
2023-05-20T11:18:39.699Z,23.54
2023-05-20T11:21:08.176Z,23.64
2023-05-20T11:23:39.880Z,23.82
2023-05-20T11:26:08.914Z,24.00
2023-05-20T11:28:36.867Z,24.06
2023-05-20T11:31:05.013Z,24.07
2023-05-20T11:33:32.998Z,24.03
2023-05-20T11:36:02.506Z,24.00
2023-05-20T11:38:31.943Z,24.03
2023-05-20T11:40:59.743Z,24.10
2023-05-20T11:43:27.810Z,24.15
2023-05-20T11:46:00.068Z,24.21
2023-05-20T11:48:28.877Z,24.28
2023-05-20T11:50:58.110Z,24.36
2023-05-20T11:53:26.600Z,24.38
2023-05-20T11:55:56.757Z,24.38
2023-05-20T11:58:27.005Z,24.46
2023-05-20T12:00:59.426Z,24.59
2023-05-20T12:03:29.946Z,24.68
2023-05-20T12:06:01.433Z,24.70
2023-05-20T12:08:29.776Z,24.73
2023-05-20T12:10:57.475Z,24.71
2023-05-20T12:13:25.225Z,24.68
2023-05-20T12:15:53.537Z,24.69
2023-05-20T12:18:22.805Z,24.71
2023-05-20T12:20:50.636Z,24.67
2023-05-20T12:23:18.409Z,24.62
2023-05-20T12:25:47.392Z,24.65
2023-05-20T12:28:15.103Z,24.76
2023-05-20T12:30:42.819Z,24.85
2023-05-20T12:33:10.507Z,24.94
2023-05-20T12:35:39.295Z,25.01
2023-05-20T12:38:07.604Z,25.04
2023-05-20T12:40:36.857Z,25.10
2023-05-20T12:43:05.789Z,25.16
2023-05-20T12:45:33.697Z,25.11
2023-05-20T12:48:02.255Z,25.01
2023-05-20T12:50:30.246Z,24.96
2023-05-20T12:52:58.005Z,25.01
2023-05-20T12:55:25.893Z,25.12
2023-05-20T12:57:56.937Z,25.23
2023-05-20T13:00:24.715Z,25.33
2023-05-20T13:02:53.012Z,25.41
2023-05-20T13:05:21.248Z,25.47
2023-05-20T13:07:49.309Z,25.52
2023-05-20T13:10:18.092Z,25.54
2023-05-20T13:12:46.525Z,25.60
2023-05-20T13:15:14.948Z,25.61
2023-05-20T13:17:43.158Z,25.50
2023-05-20T13:20:12.043Z,25.41
2023-05-20T13:22:39.998Z,25.38
2023-05-20T13:25:09.114Z,25.32
2023-05-20T13:27:36.834Z,25.30
2023-05-20T13:30:06.898Z,25.35
2023-05-20T13:32:34.677Z,25.31
2023-05-20T13:35:02.528Z,25.19
2023-05-20T13:37:30.303Z,25.05
2023-05-20T13:39:58.188Z,24.90
2023-05-20T13:42:26.099Z,24.81
2023-05-20T13:44:54.028Z,24.84
2023-05-20T13:47:21.726Z,24.89
2023-05-20T13:49:49.571Z,24.89
2023-05-20T13:52:17.294Z,24.93
2023-05-20T13:54:47.569Z,24.96
2023-05-20T13:57:16.254Z,24.93
2023-05-20T13:59:44.076Z,24.88
2023-05-20T14:02:11.876Z,24.79
2023-05-20T14:04:41.185Z,24.69
2023-05-20T14:07:09.994Z,24.57
2023-05-20T14:09:38.069Z,24.48
2023-05-20T14:12:06.560Z,24.39
2023-05-20T14:14:34.526Z,24.33
2023-05-20T14:17:02.359Z,24.29
2023-05-20T14:19:30.185Z,24.28
2023-05-20T14:22:01.195Z,24.27
2023-05-20T14:24:29.561Z,24.28
2023-05-20T14:26:57.487Z,24.26
2023-05-20T14:29:25.406Z,24.25
2023-05-20T14:31:53.150Z,24.23
2023-05-20T14:34:21.276Z,24.22
2023-05-20T14:36:49.127Z,24.20
2023-05-20T14:39:17.300Z,24.18
2023-05-20T14:41:45.346Z,24.17
2023-05-20T14:44:13.142Z,24.14
2023-05-20T14:46:40.988Z,24.12
2023-05-20T14:49:08.796Z,24.10
2023-05-20T14:51:36.603Z,24.07
2023-05-20T14:54:06.107Z,24.05
2023-05-20T14:56:33.868Z,24.02
2023-05-20T14:59:01.952Z,24.00
2023-05-20T15:01:29.862Z,23.96
2023-05-20T15:03:57.819Z,23.90
2023-05-20T15:06:26.105Z,23.86
2023-05-20T15:08:53.821Z,23.83
2023-05-20T15:11:22.451Z,23.78
2023-05-20T15:13:51.379Z,23.73
2023-05-20T15:16:19.761Z,23.70
2023-05-20T15:18:47.534Z,23.69
2023-05-20T15:21:15.405Z,23.68
2023-05-20T15:23:43.462Z,23.66
2023-05-20T15:26:12.228Z,23.64
2023-05-20T15:28:41.016Z,23.63
2023-05-20T15:31:08.961Z,23.61
2023-05-20T15:33:36.893Z,23.63
2023-05-20T15:36:06.115Z,23.74
2023-05-20T15:38:33.843Z,23.93
2023-05-20T15:41:02.401Z,24.08
2023-05-20T15:43:30.145Z,24.16
2023-05-20T15:45:57.931Z,24.17
2023-05-20T15:48:26.250Z,24.11
2023-05-20T15:50:54.033Z,24.02
2023-05-20T15:53:22.024Z,23.93
2023-05-20T15:55:51.660Z,23.85
2023-05-20T15:58:19.354Z,23.78
2023-05-20T16:00:47.975Z,23.71
2023-05-20T16:03:16.666Z,23.64
2023-05-20T16:05:44.602Z,23.55
2023-05-20T16:08:12.285Z,23.45
2023-05-20T16:10:40.060Z,23.36
2023-05-20T16:13:07.946Z,23.28
2023-05-20T16:15:38.140Z,23.19
2023-05-20T16:18:06.409Z,23.11
2023-05-20T16:20:34.564Z,23.04
2023-05-20T16:23:03.102Z,22.98
2023-05-20T16:25:31.197Z,22.92
2023-05-20T16:28:01.168Z,22.87
2023-05-20T16:30:28.997Z,22.84
2023-05-20T16:32:56.831Z,22.82
2023-05-20T16:35:24.897Z,22.79
2023-05-20T16:37:52.725Z,22.78
2023-05-20T16:40:20.666Z,22.76
2023-05-20T16:42:48.458Z,22.74
2023-05-20T16:45:16.402Z,22.71
2023-05-20T16:47:44.248Z,22.68
2023-05-20T16:50:12.104Z,22.64
2023-05-20T16:52:39.940Z,22.61
2023-05-20T16:55:08.881Z,22.56
2023-05-20T16:57:36.848Z,22.51
2023-05-20T17:00:15.721Z,22.46
2023-05-20T17:02:43.477Z,22.41
2023-05-20T17:05:11.546Z,22.35
2023-05-20T17:07:39.843Z,22.32
2023-05-20T17:10:08.262Z,22.32
2023-05-20T17:12:36.055Z,22.37
2023-05-20T17:15:06.195Z,22.43
2023-05-20T17:17:34.050Z,22.43
2023-05-20T17:20:02.713Z,22.42
2023-05-20T17:22:30.406Z,22.38
2023-05-20T17:24:58.246Z,22.36
2023-05-20T17:27:26.169Z,22.32
2023-05-20T17:29:53.864Z,22.28
2023-05-20T17:32:21.691Z,22.23
2023-05-20T17:34:49.408Z,22.18
2023-05-20T17:37:17.300Z,22.13
2023-05-20T17:39:44.970Z,22.08
2023-05-20T17:42:12.699Z,22.03
2023-05-20T17:44:40.833Z,21.99
2023-05-20T17:47:08.552Z,21.95
2023-05-20T17:49:36.493Z,21.91
2023-05-20T17:52:04.374Z,21.86
2023-05-20T17:54:32.323Z,21.80
2023-05-20T17:57:00.287Z,21.74
2023-05-20T17:59:30.362Z,21.68
2023-05-20T18:01:58.965Z,21.62
2023-05-20T18:04:28.067Z,21.56
2023-05-20T18:06:56.094Z,21.50
2023-05-20T18:09:23.793Z,21.43
2023-05-20T18:11:51.648Z,21.36
2023-05-20T18:14:22.752Z,21.29
2023-05-20T18:16:50.710Z,21.22
2023-05-20T18:19:18.834Z,21.14
2023-05-20T18:21:46.717Z,21.05
2023-05-20T18:24:16.672Z,20.97
2023-05-20T18:26:45.969Z,20.89
2023-05-20T18:29:13.811Z,20.81
2023-05-20T18:31:43.311Z,20.74
2023-05-20T18:34:11.465Z,20.67
2023-05-20T18:36:39.346Z,20.60
2023-05-20T18:39:07.727Z,20.53
2023-05-20T18:41:46.721Z,20.45
2023-05-20T18:44:17.106Z,20.38
2023-05-20T18:46:45.552Z,20.32
2023-05-20T18:49:13.253Z,20.27
2023-05-20T18:51:41.165Z,20.23
2023-05-20T18:54:08.932Z,20.18
2023-05-20T18:56:37.120Z,20.13
2023-05-20T18:59:05.084Z,20.08
2023-05-20T19:01:34.025Z,20.02
2023-05-20T19:04:02.636Z,19.98
2023-05-20T19:06:32.095Z,19.93
2023-05-20T19:09:01.486Z,19.88
2023-05-20T19:11:29.629Z,19.83
2023-05-20T19:14:00.879Z,19.77
2023-05-20T19:16:28.695Z,19.72
2023-05-20T19:18:56.494Z,19.65
2023-05-20T19:21:24.274Z,19.59
2023-05-20T19:23:52.448Z,19.54
2023-05-20T19:26:20.142Z,19.48
2023-05-20T19:28:47.871Z,19.42
2023-05-20T19:31:21.293Z,19.38
2023-05-20T19:33:52.402Z,19.31
2023-05-20T19:36:20.222Z,19.26
2023-05-20T19:38:47.960Z,19.21
2023-05-20T19:41:16.499Z,19.15
2023-05-20T19:43:48.503Z,19.10
2023-05-20T19:46:17.091Z,19.03
2023-05-20T19:48:45.505Z,18.97
2023-05-20T19:51:13.312Z,18.91
2023-05-20T19:53:41.457Z,18.85
2023-05-20T19:56:09.367Z,18.78
2023-05-20T19:58:37.164Z,18.72
2023-05-20T20:01:06.713Z,18.66
2023-05-20T20:03:34.503Z,18.58
2023-05-20T20:06:02.472Z,18.51
2023-05-20T20:08:30.444Z,18.45
2023-05-20T20:10:58.116Z,18.39
2023-05-20T20:13:25.876Z,18.33
2023-05-20T20:15:53.608Z,18.26
2023-05-20T20:18:21.436Z,18.19
2023-05-20T20:20:49.624Z,18.12
2023-05-20T20:23:17.593Z,18.05
2023-05-20T20:25:48.218Z,18.00
2023-05-20T20:28:16.182Z,17.93
2023-05-20T20:30:43.932Z,17.88
2023-05-20T20:33:11.858Z,17.81
2023-05-20T20:35:39.556Z,17.75
2023-05-20T20:38:10.713Z,17.70
2023-05-20T20:40:41.922Z,17.64
2023-05-20T20:43:11.104Z,17.57
2023-05-20T20:45:39.028Z,17.50
2023-05-20T20:48:08.284Z,17.43
2023-05-20T20:50:36.739Z,17.36
2023-05-20T20:53:04.467Z,17.29
2023-05-20T20:55:32.249Z,17.22
2023-05-20T20:58:02.840Z,17.14
2023-05-20T21:00:30.956Z,17.06
2023-05-20T21:02:58.730Z,16.98
2023-05-20T21:05:27.009Z,16.90
2023-05-20T21:07:58.449Z,16.85
2023-05-20T21:10:29.830Z,16.79
2023-05-20T21:12:58.344Z,16.73
2023-05-20T21:15:27.459Z,16.67
2023-05-20T21:17:55.196Z,16.62
2023-05-20T21:20:22.946Z,16.57
2023-05-20T21:22:50.983Z,16.52
2023-05-20T21:25:18.851Z,16.48
2023-05-20T21:27:46.698Z,16.43
2023-05-20T21:30:15.980Z,16.40
2023-05-20T21:32:43.879Z,16.37
2023-05-20T21:35:11.713Z,16.34
2023-05-20T21:37:39.443Z,16.30
2023-05-20T21:40:07.755Z,16.27
2023-05-20T21:42:35.497Z,16.23
2023-05-20T21:45:03.361Z,16.19
2023-05-20T21:47:31.170Z,16.17
2023-05-20T21:49:58.948Z,16.15
2023-05-20T21:52:26.634Z,16.10
2023-05-20T21:54:54.341Z,16.06
2023-05-20T21:57:22.273Z,16.02
2023-05-20T21:59:50.270Z,15.98
2023-05-20T22:02:18.032Z,15.93
2023-05-20T22:04:45.799Z,15.89
2023-05-20T22:07:13.481Z,15.84
2023-05-20T22:09:41.186Z,15.80
2023-05-20T22:12:11.157Z,15.75
2023-05-20T22:14:38.868Z,15.70
2023-05-20T22:17:06.604Z,15.65
2023-05-20T22:19:34.400Z,15.60
2023-05-20T22:22:02.524Z,15.56
2023-05-20T22:24:30.216Z,15.51
2023-05-20T22:26:57.869Z,15.46
2023-05-20T22:29:25.579Z,15.40
2023-05-20T22:31:53.811Z,15.34
2023-05-20T22:34:21.671Z,15.28
2023-05-20T22:36:49.456Z,15.23
2023-05-20T22:39:17.176Z,15.20
2023-05-20T22:41:44.935Z,15.16
2023-05-20T22:44:12.738Z,15.14
2023-05-20T22:46:41.014Z,15.11
2023-05-20T22:49:10.370Z,15.08
2023-05-20T22:51:38.767Z,15.05
2023-05-20T22:54:07.140Z,15.02
2023-05-20T22:56:34.901Z,14.98
2023-05-20T22:59:03.243Z,14.94
2023-05-20T23:01:31.018Z,14.91
2023-05-20T23:03:58.810Z,14.88
2023-05-20T23:06:26.942Z,14.83
2023-05-20T23:08:54.713Z,14.79
2023-05-20T23:11:23.328Z,14.74
2023-05-20T23:13:51.274Z,14.71
2023-05-20T23:16:19.022Z,14.67
2023-05-20T23:18:47.596Z,14.63
2023-05-20T23:21:15.442Z,14.56
2023-05-20T23:23:43.173Z,14.49
2023-05-20T23:26:11.000Z,14.44
2023-05-20T23:28:39.609Z,14.39
2023-05-20T23:31:09.301Z,14.36
2023-05-20T23:33:37.087Z,14.31
2023-05-20T23:36:05.261Z,14.26
2023-05-20T23:38:33.025Z,14.21
2023-05-20T23:41:01.380Z,14.17
2023-05-20T23:43:29.048Z,14.13
2023-05-20T23:45:56.958Z,14.10
2023-05-20T23:48:26.444Z,14.07
2023-05-20T23:50:54.147Z,14.03
2023-05-20T23:53:22.459Z,13.99
2023-05-20T23:55:50.271Z,13.94
2023-05-20T23:58:17.995Z,13.90
